sensor_id;sensor_type;location;lat;lon;timestamp;temperature;humidity
43185;DHT22;28803;52.308;19.096;2023-02-01T06:59:36;2.70;99.90
43185;DHT22;28803;52.308;19.096;2023-02-01T07:02:03;2.70;99.90
43185;DHT22;28803;52.308;19.096;2023-02-01T07:04:30;2.70;99.90
43185;DHT22;28803;52.308;19.096;2023-02-01T07:06:58;2.70;99.90
43185;DHT22;28803;52.308;19.096;2023-02-01T07:09:25;2.60;99.90
43185;DHT22;28803;52.308;19.096;2023-02-01T07:11:52;2.60;99.90
43185;DHT22;28803;52.308;19.096;2023-02-01T07:14:19;2.60;99.90
43185;DHT22;28803;52.308;19.096;2023-02-01T07:16:46;2.70;99.90
43185;DHT22;28803;52.308;19.096;2023-02-01T07:19:14;2.60;99.90
43185;DHT22;28803;52.308;19.096;2023-02-01T07:21:41;2.60;99.90
43185;DHT22;28803;52.308;19.096;2023-02-01T07:24:08;2.60;99.90
43185;DHT22;28803;52.308;19.096;2023-02-01T07:26:36;2.70;99.90
43185;DHT22;28803;52.308;19.096;2023-02-01T07:29:03;2.70;99.90
43185;DHT22;28803;52.308;19.096;2023-02-01T07:31:30;2.70;99.90
43185;DHT22;28803;52.308;19.096;2023-02-01T07:33:57;2.80;99.90
43185;DHT22;28803;52.308;19.096;2023-02-01T07:36:25;2.90;99.90
43185;DHT22;28803;52.308;19.096;2023-02-01T07:38:52;2.90;99.90
43185;DHT22;28803;52.308;19.096;2023-02-01T07:41:23;2.90;99.90
43185;DHT22;28803;52.308;19.096;2023-02-01T07:43:52;3.00;99.90
43185;DHT22;28803;52.308;19.096;2023-02-01T07:46:20;3.20;99.90
43185;DHT22;28803;52.308;19.096;2023-02-01T07:48:47;3.10;99.90
43185;DHT22;28803;52.308;19.096;2023-02-01T07:51:16;3.10;99.90
43185;DHT22;28803;52.308;19.096;2023-02-01T07:53:44;3.10;99.90
43185;DHT22;28803;52.308;19.096;2023-02-01T07:56:13;3.10;99.90
43185;DHT22;28803;52.308;19.096;2023-02-01T07:58:41;3.10;99.90
43185;DHT22;28803;52.308;19.096;2023-02-01T08:01:23;3.00;99.90
43185;DHT22;28803;52.308;19.096;2023-02-01T08:06:23;3.10;99.90
43185;DHT22;28803;52.308;19.096;2023-02-01T08:08:51;3.20;99.90
43185;DHT22;28803;52.308;19.096;2023-02-01T08:11:19;3.40;99.90
43185;DHT22;28803;52.308;19.096;2023-02-01T08:13:47;3.40;99.90
43185;DHT22;28803;52.308;19.096;2023-02-01T08:16:15;3.30;99.90
43185;DHT22;28803;52.308;19.096;2023-02-01T08:18:44;3.50;99.90
43185;DHT22;28803;52.308;19.096;2023-02-01T08:21:17;3.60;99.90
43185;DHT22;28803;52.308;19.096;2023-02-01T08:23:44;3.80;99.90
43185;DHT22;28803;52.308;19.096;2023-02-01T08:26:18;3.90;99.90
43185;DHT22;28803;52.308;19.096;2023-02-01T08:28:52;3.90;99.90
43185;DHT22;28803;52.308;19.096;2023-02-01T08:31:21;3.80;99.90
43185;DHT22;28803;52.308;19.096;2023-02-01T08:33:52;3.60;99.90
43185;DHT22;28803;52.308;19.096;2023-02-01T08:36:21;3.60;99.90
43185;DHT22;28803;52.308;19.096;2023-02-01T08:38:48;3.60;99.90
43185;DHT22;28803;52.308;19.096;2023-02-01T08:41:18;3.50;99.90
43185;DHT22;28803;52.308;19.096;2023-02-01T08:43:46;3.50;99.90
43185;DHT22;28803;52.308;19.096;2023-02-01T08:46:15;3.60;99.90
43185;DHT22;28803;52.308;19.096;2023-02-01T08:48:45;3.80;99.90
43185;DHT22;28803;52.308;19.096;2023-02-01T08:51:13;3.70;99.90
43185;DHT22;28803;52.308;19.096;2023-02-01T08:53:42;3.60;99.90
43185;DHT22;28803;52.308;19.096;2023-02-01T08:56:11;3.60;99.90
43185;DHT22;28803;52.308;19.096;2023-02-01T08:58:38;4.30;99.90
43185;DHT22;28803;52.308;19.096;2023-02-01T09:01:08;5.00;99.90
43185;DHT22;28803;52.308;19.096;2023-02-01T09:03:36;6.50;99.90
43185;DHT22;28803;52.308;19.096;2023-02-01T09:06:06;6.40;99.90
43185;DHT22;28803;52.308;19.096;2023-02-01T09:08:34;6.20;99.90
43185;DHT22;28803;52.308;19.096;2023-02-01T09:11:04;5.50;99.90
43185;DHT22;28803;52.308;19.096;2023-02-01T09:13:31;5.30;99.90
43185;DHT22;28803;52.308;19.096;2023-02-01T09:15:58;5.40;99.90
43185;DHT22;28803;52.308;19.096;2023-02-01T09:18:27;5.80;99.90
43185;DHT22;28803;52.308;19.096;2023-02-01T09:20:54;5.70;99.90
43185;DHT22;28803;52.308;19.096;2023-02-01T09:23:21;5.20;99.90
43185;DHT22;28803;52.308;19.096;2023-02-01T09:25:49;4.90;99.90
43185;DHT22;28803;52.308;19.096;2023-02-01T09:28:19;4.60;99.90
43185;DHT22;28803;52.308;19.096;2023-02-01T09:30:46;4.50;99.90
43185;DHT22;28803;52.308;19.096;2023-02-01T09:33:14;4.40;99.90
43185;DHT22;28803;52.308;19.096;2023-02-01T09:35:41;4.30;99.90
43185;DHT22;28803;52.308;19.096;2023-02-01T09:40:36;4.40;99.90
43185;DHT22;28803;52.308;19.096;2023-02-01T09:43:43;4.40;99.90
43185;DHT22;28803;52.308;19.096;2023-02-01T09:46:24;4.30;99.90
43185;DHT22;28803;52.308;19.096;2023-02-01T09:48:55;4.40;99.90
43185;DHT22;28803;52.308;19.096;2023-02-01T09:51:26;4.40;99.90
43185;DHT22;28803;52.308;19.096;2023-02-01T09:54:13;4.40;99.90
43185;DHT22;28803;52.308;19.096;2023-02-01T09:57:06;4.50;99.90
43185;DHT22;28803;52.308;19.096;2023-02-01T09:59:43;4.40;99.90
43185;DHT22;28803;52.308;19.096;2023-02-01T10:02:21;4.50;99.90
43185;DHT22;28803;52.308;19.096;2023-02-01T10:04:50;4.50;99.90
43185;DHT22;28803;52.308;19.096;2023-02-01T10:10:28;4.40;99.90
43185;DHT22;28803;52.308;19.096;2023-02-01T10:28:41;5.00;99.90
43185;DHT22;28803;52.308;19.096;2023-02-01T10:31:10;5.00;99.90
43185;DHT22;28803;52.308;19.096;2023-02-01T10:33:44;4.70;99.90
43185;DHT22;28803;52.308;19.096;2023-02-01T10:36:20;4.40;99.90
43185;DHT22;28803;52.308;19.096;2023-02-01T10:38:48;4.30;99.90
43185;DHT22;28803;52.308;19.096;2023-02-01T10:41:19;4.30;99.90
43185;DHT22;28803;52.308;19.096;2023-02-01T10:43:50;4.10;99.90
43185;DHT22;28803;52.308;19.096;2023-02-01T10:46:22;4.00;99.90
43185;DHT22;28803;52.308;19.096;2023-02-01T10:48:52;3.90;99.90
43185;DHT22;28803;52.308;19.096;2023-02-01T10:51:42;3.90;99.90
43185;DHT22;28803;52.308;19.096;2023-02-01T10:54:19;3.80;99.90
43185;DHT22;28803;52.308;19.096;2023-02-01T10:56:48;3.70;99.90
43185;DHT22;28803;52.308;19.096;2023-02-01T10:59:19;3.70;99.90
43185;DHT22;28803;52.308;19.096;2023-02-01T11:01:51;3.70;99.90
43185;DHT22;28803;52.308;19.096;2023-02-01T11:04:26;3.70;99.90
43185;DHT22;28803;52.308;19.096;2023-02-01T11:07:06;3.60;99.90
43185;DHT22;28803;52.308;19.096;2023-02-01T11:09:39;3.60;99.90
43185;DHT22;28803;52.308;19.096;2023-02-01T11:14:49;3.70;99.90
43185;DHT22;28803;52.308;19.096;2023-02-01T11:17:26;4.00;99.90
43185;DHT22;28803;52.308;19.096;2023-02-01T11:20:12;4.10;99.90
43185;DHT22;28803;52.308;19.096;2023-02-01T11:22:52;4.50;99.90
43185;DHT22;28803;52.308;19.096;2023-02-01T11:25:20;4.60;99.90
43185;DHT22;28803;52.308;19.096;2023-02-01T11:27:54;4.70;99.90
43185;DHT22;28803;52.308;19.096;2023-02-01T11:30:41;4.80;99.90
43185;DHT22;28803;52.308;19.096;2023-02-01T11:33:19;4.90;99.90
43185;DHT22;28803;52.308;19.096;2023-02-01T11:35:48;4.90;99.90
43185;DHT22;28803;52.308;19.096;2023-02-01T11:38:29;4.80;99.90
43185;DHT22;28803;52.308;19.096;2023-02-01T11:43:53;4.50;99.90
43185;DHT22;28803;52.308;19.096;2023-02-01T11:46:24;4.50;99.90
43185;DHT22;28803;52.308;19.096;2023-02-01T11:48:53;4.40;99.90
43185;DHT22;28803;52.308;19.096;2023-02-01T11:54:28;4.30;99.90
43185;DHT22;28803;52.308;19.096;2023-02-01T11:57:04;3.90;99.90
43185;DHT22;28803;52.308;19.096;2023-02-01T12:00:03;3.90;99.90
43185;DHT22;28803;52.308;19.096;2023-02-01T12:03:13;3.80;99.90
43185;DHT22;28803;52.308;19.096;2023-02-01T12:14:02;4.20;99.90
43185;DHT22;28803;52.308;19.096;2023-02-01T12:16:50;4.20;99.90
43185;DHT22;28803;52.308;19.096;2023-02-01T12:23:06;4.20;99.90
43185;DHT22;28803;52.308;19.096;2023-02-01T12:25:53;4.20;99.90
43185;DHT22;28803;52.308;19.096;2023-02-01T12:36:22;4.20;99.90
43185;DHT22;28803;52.308;19.096;2023-02-01T12:38:57;4.10;99.90
43185;DHT22;28803;52.308;19.096;2023-02-01T12:47:20;4.20;99.90
43185;DHT22;28803;52.308;19.096;2023-02-01T12:52:42;4.20;99.90
43185;DHT22;28803;52.308;19.096;2023-02-01T12:55:24;4.10;99.90
43185;DHT22;28803;52.308;19.096;2023-02-01T12:58:06;4.10;99.90
43185;DHT22;28803;52.308;19.096;2023-02-01T13:00:48;4.10;99.90
43185;DHT22;28803;52.308;19.096;2023-02-01T13:06:28;4.20;99.90
43185;DHT22;28803;52.308;19.096;2023-02-01T13:11:33;4.20;99.90
43185;DHT22;28803;52.308;19.096;2023-02-01T13:14:57;4.20;99.90
43185;DHT22;28803;52.308;19.096;2023-02-01T13:17:29;4.10;99.90
43185;DHT22;28803;52.308;19.096;2023-02-01T13:20:29;4.00;99.90
43185;DHT22;28803;52.308;19.096;2023-02-01T13:23:29;3.90;99.90
43185;DHT22;28803;52.308;19.096;2023-02-01T13:25:57;3.90;99.90
43185;DHT22;28803;52.308;19.096;2023-02-01T13:42:55;4.00;99.90
43185;DHT22;28803;52.308;19.096;2023-02-01T13:45:29;3.90;99.90
43185;DHT22;28803;52.308;19.096;2023-02-01T13:47:59;3.80;99.90
43185;DHT22;28803;52.308;19.096;2023-02-01T13:53:18;3.70;99.90
43185;DHT22;28803;52.308;19.096;2023-02-01T13:55:59;3.70;99.90
43185;DHT22;28803;52.308;19.096;2023-02-01T13:58:32;3.70;99.90
43185;DHT22;28803;52.308;19.096;2023-02-01T14:03:58;3.70;99.90
43185;DHT22;28803;52.308;19.096;2023-02-01T14:09:19;3.70;99.90
43185;DHT22;28803;52.308;19.096;2023-02-01T14:11:57;3.60;99.90
43185;DHT22;28803;52.308;19.096;2023-02-01T14:19:27;3.60;99.90
43185;DHT22;28803;52.308;19.096;2023-02-01T14:24:55;3.60;99.90
43185;DHT22;28803;52.308;19.096;2023-02-01T14:27:29;3.60;99.90
43185;DHT22;28803;52.308;19.096;2023-02-01T14:30:04;3.60;99.90
43185;DHT22;28803;52.308;19.096;2023-02-01T14:32:40;3.60;99.90
43185;DHT22;28803;52.308;19.096;2023-02-01T14:35:26;3.70;99.90
43185;DHT22;28803;52.308;19.096;2023-02-01T14:37:59;3.70;99.90
43185;DHT22;28803;52.308;19.096;2023-02-01T14:40:30;3.70;99.90
43185;DHT22;28803;52.308;19.096;2023-02-01T14:42:58;3.80;99.90
43185;DHT22;28803;52.308;19.096;2023-02-01T14:58:35;3.70;99.90
43185;DHT22;28803;52.308;19.096;2023-02-01T15:03:43;3.70;99.90
43185;DHT22;28803;52.308;19.096;2023-02-01T15:09:09;3.60;99.90
43185;DHT22;28803;52.308;19.096;2023-02-01T15:14:29;3.60;99.90
43185;DHT22;28803;52.308;19.096;2023-02-01T15:16:57;3.60;99.90
43185;DHT22;28803;52.308;19.096;2023-02-01T15:19:27;3.60;99.90
43185;DHT22;28803;52.308;19.096;2023-02-01T15:21:56;3.60;99.90
43185;DHT22;28803;52.308;19.096;2023-02-01T15:24:26;3.50;99.90
43185;DHT22;28803;52.308;19.096;2023-02-01T15:26:55;3.50;99.90
43185;DHT22;28803;52.308;19.096;2023-02-01T15:29:23;3.50;99.90
43185;DHT22;28803;52.308;19.096;2023-02-01T15:31:54;3.50;99.90
43185;DHT22;28803;52.308;19.096;2023-02-01T15:34:21;3.50;99.90
43185;DHT22;28803;52.308;19.096;2023-02-01T15:36:49;3.50;99.90
43185;DHT22;28803;52.308;19.096;2023-02-01T15:39:29;3.50;99.90
43185;DHT22;28803;52.308;19.096;2023-02-01T15:42:01;3.40;99.90
43185;DHT22;28803;52.308;19.096;2023-02-01T15:44:43;3.40;99.90
43185;DHT22;28803;52.308;19.096;2023-02-01T15:47:33;3.40;99.90
43185;DHT22;28803;52.308;19.096;2023-02-01T15:50:01;3.40;99.90
43185;DHT22;28803;52.308;19.096;2023-02-01T15:52:40;3.40;99.90
43185;DHT22;28803;52.308;19.096;2023-02-01T15:55:22;3.30;99.90
43185;DHT22;28803;52.308;19.096;2023-02-01T15:57:51;3.30;99.90
43185;DHT22;28803;52.308;19.096;2023-02-01T16:00:29;3.30;99.90
43185;DHT22;28803;52.308;19.096;2023-02-01T16:02:59;3.20;99.90
43185;DHT22;28803;52.308;19.096;2023-02-01T16:05:38;3.10;99.90
43185;DHT22;28803;52.308;19.096;2023-02-01T16:08:14;2.90;99.90
43185;DHT22;28803;52.308;19.096;2023-02-01T16:10:47;2.90;99.90
43185;DHT22;28803;52.308;19.096;2023-02-01T16:13:16;2.80;99.90
43185;DHT22;28803;52.308;19.096;2023-02-01T16:15:44;2.80;99.90
43185;DHT22;28803;52.308;19.096;2023-02-01T16:18:12;2.70;99.90
43185;DHT22;28803;52.308;19.096;2023-02-01T16:20:41;2.80;99.90
43185;DHT22;28803;52.308;19.096;2023-02-01T16:23:09;2.70;99.90
43185;DHT22;28803;52.308;19.096;2023-02-01T16:25:38;2.70;99.90
43185;DHT22;28803;52.308;19.096;2023-02-01T16:28:06;2.70;99.90
43185;DHT22;28803;52.308;19.096;2023-02-01T16:30:34;2.60;99.90
43185;DHT22;28803;52.308;19.096;2023-02-01T16:33:02;2.60;99.90
43185;DHT22;28803;52.308;19.096;2023-02-01T16:35:33;2.60;99.90
43185;DHT22;28803;52.308;19.096;2023-02-01T16:38:13;2.60;99.90
43185;DHT22;28803;52.308;19.096;2023-02-01T16:40:42;2.50;99.90
43185;DHT22;28803;52.308;19.096;2023-02-01T16:43:18;2.40;99.90
43185;DHT22;28803;52.308;19.096;2023-02-01T16:45:48;2.40;99.90
43185;DHT22;28803;52.308;19.096;2023-02-01T16:48:29;2.30;99.90
43185;DHT22;28803;52.308;19.096;2023-02-01T16:50:59;2.30;99.90
43185;DHT22;28803;52.308;19.096;2023-02-01T16:53:29;2.40;99.90
43185;DHT22;28803;52.308;19.096;2023-02-01T16:55:59;2.40;99.90
43185;DHT22;28803;52.308;19.096;2023-02-01T16:58:26;2.50;99.90
43185;DHT22;28803;52.308;19.096;2023-02-01T17:00:54;2.60;99.90
43185;DHT22;28803;52.308;19.096;2023-02-01T17:03:22;2.60;99.90
43185;DHT22;28803;52.308;19.096;2023-02-01T17:05:52;2.70;99.90
43185;DHT22;28803;52.308;19.096;2023-02-01T17:08:31;2.70;99.90
43185;DHT22;28803;52.308;19.096;2023-02-01T17:11:02;2.70;99.90
43185;DHT22;28803;52.308;19.096;2023-02-01T17:13:30;2.70;99.90
43185;DHT22;28803;52.308;19.096;2023-02-01T17:16:00;2.80;99.90
43185;DHT22;28803;52.308;19.096;2023-02-01T17:18:31;2.80;99.90
43185;DHT22;28803;52.308;19.096;2023-02-01T17:21:01;2.80;99.90
43185;DHT22;28803;52.308;19.096;2023-02-01T17:23:29;2.90;99.90
43185;DHT22;28803;52.308;19.096;2023-02-01T17:25:58;2.90;99.90
43185;DHT22;28803;52.308;19.096;2023-02-01T17:28:25;2.90;99.90
43185;DHT22;28803;52.308;19.096;2023-02-01T17:30:53;2.90;99.90
43185;DHT22;28803;52.308;19.096;2023-02-01T17:33:26;2.90;99.90
43185;DHT22;28803;52.308;19.096;2023-02-01T17:36:04;2.70;99.90
43185;DHT22;28803;52.308;19.096;2023-02-01T17:38:33;2.70;99.90
43185;DHT22;28803;52.308;19.096;2023-02-01T17:41:01;2.70;99.90
43185;DHT22;28803;52.308;19.096;2023-02-01T17:43:28;2.60;99.90
43185;DHT22;28803;52.308;19.096;2023-02-01T17:46:03;2.70;99.90
43185;DHT22;28803;52.308;19.096;2023-02-01T17:48:30;2.60;99.90
43185;DHT22;28803;52.308;19.096;2023-02-01T17:50:59;2.60;99.90
43185;DHT22;28803;52.308;19.096;2023-02-01T17:53:28;2.70;99.90
43185;DHT22;28803;52.308;19.096;2023-02-01T17:55:56;2.60;99.90
43185;DHT22;28803;52.308;19.096;2023-02-01T17:58:25;2.60;99.90
43185;DHT22;28803;52.308;19.096;2023-02-01T18:00:53;2.60;99.90
43185;DHT22;28803;52.308;19.096;2023-02-01T18:03:28;2.60;99.90
43185;DHT22;28803;52.308;19.096;2023-02-01T18:05:57;2.60;99.90
43185;DHT22;28803;52.308;19.096;2023-02-01T18:08:29;2.60;99.90
43185;DHT22;28803;52.308;19.096;2023-02-01T18:11:01;2.60;99.90
43185;DHT22;28803;52.308;19.096;2023-02-01T18:13:29;2.60;99.90
43185;DHT22;28803;52.308;19.096;2023-02-01T18:15:57;2.60;99.90
43185;DHT22;28803;52.308;19.096;2023-02-01T18:18:29;2.60;99.90
43185;DHT22;28803;52.308;19.096;2023-02-01T18:20:59;2.60;99.90
43185;DHT22;28803;52.308;19.096;2023-02-01T18:23:26;2.70;99.90
43185;DHT22;28803;52.308;19.096;2023-02-01T18:25:53;2.70;99.90
43185;DHT22;28803;52.308;19.096;2023-02-01T18:28:20;2.80;99.90
43185;DHT22;28803;52.308;19.096;2023-02-01T18:30:49;2.80;99.90
43185;DHT22;28803;52.308;19.096;2023-02-01T18:33:18;2.80;99.90
43185;DHT22;28803;52.308;19.096;2023-02-01T18:35:46;2.80;99.90
43185;DHT22;28803;52.308;19.096;2023-02-01T18:38:14;2.80;99.90
43185;DHT22;28803;52.308;19.096;2023-02-01T18:40:50;2.70;99.90
43185;DHT22;28803;52.308;19.096;2023-02-01T18:43:19;2.70;99.90
43185;DHT22;28803;52.308;19.096;2023-02-01T18:45:47;2.60;99.90
43185;DHT22;28803;52.308;19.096;2023-02-01T18:48:15;2.60;99.90
43185;DHT22;28803;52.308;19.096;2023-02-01T18:50:44;2.70;99.90
43185;DHT22;28803;52.308;19.096;2023-02-01T18:53:14;2.80;99.90
43185;DHT22;28803;52.308;19.096;2023-02-01T18:55:41;2.80;99.90
43185;DHT22;28803;52.308;19.096;2023-02-01T18:58:11;2.80;99.90
43185;DHT22;28803;52.308;19.096;2023-02-01T19:00:39;2.90;99.90
43185;DHT22;28803;52.308;19.096;2023-02-01T19:03:06;2.80;99.90
43185;DHT22;28803;52.308;19.096;2023-02-01T19:05:34;2.80;99.90
43185;DHT22;28803;52.308;19.096;2023-02-01T19:08:01;2.80;99.90
43185;DHT22;28803;52.308;19.096;2023-02-01T19:10:28;2.80;99.90
43185;DHT22;28803;52.308;19.096;2023-02-01T19:12:55;2.70;99.90
43185;DHT22;28803;52.308;19.096;2023-02-01T19:15:24;2.70;99.90
43185;DHT22;28803;52.308;19.096;2023-02-01T19:17:53;2.70;99.90
43185;DHT22;28803;52.308;19.096;2023-02-01T19:20:25;2.70;99.90
43185;DHT22;28803;52.308;19.096;2023-02-01T19:22:53;2.80;99.90
43185;DHT22;28803;52.308;19.096;2023-02-01T19:25:23;2.80;99.90
43185;DHT22;28803;52.308;19.096;2023-02-01T19:27:51;2.70;99.90
43185;DHT22;28803;52.308;19.096;2023-02-01T19:30:20;2.80;99.90
43185;DHT22;28803;52.308;19.096;2023-02-01T19:32:48;2.60;99.90
43185;DHT22;28803;52.308;19.096;2023-02-01T19:35:17;2.70;99.90
43185;DHT22;28803;52.308;19.096;2023-02-01T19:37:48;2.70;99.90
43185;DHT22;28803;52.308;19.096;2023-02-01T19:40:18;2.70;99.90
43185;DHT22;28803;52.308;19.096;2023-02-01T19:42:46;2.90;99.90
43185;DHT22;28803;52.308;19.096;2023-02-01T19:45:14;2.90;99.90
43185;DHT22;28803;52.308;19.096;2023-02-01T19:47:41;2.90;99.90
43185;DHT22;28803;52.308;19.096;2023-02-01T19:50:14;2.90;99.90
43185;DHT22;28803;52.308;19.096;2023-02-01T19:52:41;2.90;99.90
43185;DHT22;28803;52.308;19.096;2023-02-01T19:55:09;3.00;99.90
43185;DHT22;28803;52.308;19.096;2023-02-01T19:57:36;3.00;99.90
43185;DHT22;28803;52.308;19.096;2023-02-01T20:00:07;3.00;99.90
43185;DHT22;28803;52.308;19.096;2023-02-01T20:02:43;3.00;99.90
43185;DHT22;28803;52.308;19.096;2023-02-01T20:05:10;3.00;99.90
43185;DHT22;28803;52.308;19.096;2023-02-01T20:07:38;3.00;99.90
43185;DHT22;28803;52.308;19.096;2023-02-01T20:10:07;3.00;99.90
43185;DHT22;28803;52.308;19.096;2023-02-01T20:12:34;3.00;99.90
43185;DHT22;28803;52.308;19.096;2023-02-01T20:15:03;3.00;99.90
43185;DHT22;28803;52.308;19.096;2023-02-01T20:17:30;3.00;99.90
43185;DHT22;28803;52.308;19.096;2023-02-01T20:20:00;3.00;99.90
43185;DHT22;28803;52.308;19.096;2023-02-01T20:22:27;2.90;99.90
43185;DHT22;28803;52.308;19.096;2023-02-01T20:24:54;2.90;99.90
43185;DHT22;28803;52.308;19.096;2023-02-01T20:27:24;2.90;99.90
43185;DHT22;28803;52.308;19.096;2023-02-01T20:29:51;2.90;99.90
43185;DHT22;28803;52.308;19.096;2023-02-01T20:32:18;3.00;99.90
43185;DHT22;28803;52.308;19.096;2023-02-01T20:34:46;2.90;99.90
43185;DHT22;28803;52.308;19.096;2023-02-01T20:37:16;2.90;99.90
43185;DHT22;28803;52.308;19.096;2023-02-01T20:39:44;2.90;99.90
43185;DHT22;28803;52.308;19.096;2023-02-01T20:42:11;2.80;99.90
43185;DHT22;28803;52.308;19.096;2023-02-01T20:44:39;2.80;99.90
43185;DHT22;28803;52.308;19.096;2023-02-01T20:47:06;2.60;99.90
43185;DHT22;28803;52.308;19.096;2023-02-01T20:49:33;2.60;99.90
43185;DHT22;28803;52.308;19.096;2023-02-01T20:52:01;2.50;99.90
43185;DHT22;28803;52.308;19.096;2023-02-01T20:54:28;2.50;99.90
43185;DHT22;28803;52.308;19.096;2023-02-01T20:56:55;2.40;99.90
43185;DHT22;28803;52.308;19.096;2023-02-01T20:59:22;2.50;99.90
43185;DHT22;28803;52.308;19.096;2023-02-01T21:01:49;2.40;99.90
43185;DHT22;28803;52.308;19.096;2023-02-01T21:04:23;2.40;99.90
43185;DHT22;28803;52.308;19.096;2023-02-01T21:06:54;2.40;99.90
43185;DHT22;28803;52.308;19.096;2023-02-01T21:09:22;2.40;99.90
43185;DHT22;28803;52.308;19.096;2023-02-01T21:11:49;2.40;99.90
43185;DHT22;28803;52.308;19.096;2023-02-01T21:14:19;2.40;99.90
43185;DHT22;28803;52.308;19.096;2023-02-01T21:16:47;2.40;99.90
43185;DHT22;28803;52.308;19.096;2023-02-01T21:19:16;2.40;99.90
43185;DHT22;28803;52.308;19.096;2023-02-01T21:21:43;2.40;99.90
43185;DHT22;28803;52.308;19.096;2023-02-01T21:24:10;2.50;99.90
43185;DHT22;28803;52.308;19.096;2023-02-01T21:26:37;2.40;99.90
43185;DHT22;28803;52.308;19.096;2023-02-01T21:29:10;2.40;99.90
43185;DHT22;28803;52.308;19.096;2023-02-01T21:31:39;2.40;99.90
43185;DHT22;28803;52.308;19.096;2023-02-01T21:34:07;2.30;99.90
43185;DHT22;28803;52.308;19.096;2023-02-01T21:36:34;2.30;99.90
43185;DHT22;28803;52.308;19.096;2023-02-01T21:39:04;2.30;99.90
43185;DHT22;28803;52.308;19.096;2023-02-01T21:41:33;2.40;99.90
43185;DHT22;28803;52.308;19.096;2023-02-01T21:44:20;2.30;99.90
43185;DHT22;28803;52.308;19.096;2023-02-01T21:46:48;2.30;99.90
43185;DHT22;28803;52.308;19.096;2023-02-01T21:49:15;2.30;99.90
43185;DHT22;28803;52.308;19.096;2023-02-01T21:54:10;2.30;99.90
43185;DHT22;28803;52.308;19.096;2023-02-01T21:56:38;2.30;99.90
43185;DHT22;28803;52.308;19.096;2023-02-01T21:59:06;2.20;99.90
43185;DHT22;28803;52.308;19.096;2023-02-01T22:01:36;2.20;99.90
43185;DHT22;28803;52.308;19.096;2023-02-01T22:04:04;2.20;99.90
43185;DHT22;28803;52.308;19.096;2023-02-01T22:06:34;2.10;99.90
43185;DHT22;28803;52.308;19.096;2023-02-01T22:09:02;2.10;99.90
43185;DHT22;28803;52.308;19.096;2023-02-01T22:11:30;2.10;99.90
43185;DHT22;28803;52.308;19.096;2023-02-01T22:13:58;1.90;99.90
43185;DHT22;28803;52.308;19.096;2023-02-01T22:16:25;1.80;99.90
43185;DHT22;28803;52.308;19.096;2023-02-01T22:18:53;1.80;99.90
43185;DHT22;28803;52.308;19.096;2023-02-01T22:21:20;1.80;99.90
43185;DHT22;28803;52.308;19.096;2023-02-01T22:23:54;1.90;99.90
43185;DHT22;28803;52.308;19.096;2023-02-01T22:26:23;2.00;99.90
43185;DHT22;28803;52.308;19.096;2023-02-01T22:28:52;2.00;99.90
43185;DHT22;28803;52.308;19.096;2023-02-01T22:31:19;2.00;99.90
43185;DHT22;28803;52.308;19.096;2023-02-01T22:33:48;2.00;99.90
43185;DHT22;28803;52.308;19.096;2023-02-01T22:36:16;2.00;99.90
43185;DHT22;28803;52.308;19.096;2023-02-01T22:38:44;1.90;99.90
43185;DHT22;28803;52.308;19.096;2023-02-01T22:41:12;1.90;99.90
43185;DHT22;28803;52.308;19.096;2023-02-01T22:43:40;1.80;99.90
43185;DHT22;28803;52.308;19.096;2023-02-01T22:46:11;1.80;99.90
43185;DHT22;28803;52.308;19.096;2023-02-01T22:48:41;1.70;99.90
43185;DHT22;28803;52.308;19.096;2023-02-01T22:51:21;1.70;99.90
43185;DHT22;28803;52.308;19.096;2023-02-01T22:53:49;1.70;99.90
43185;DHT22;28803;52.308;19.096;2023-02-01T22:56:31;1.60;99.90
43185;DHT22;28803;52.308;19.096;2023-02-01T22:59:04;1.50;99.90
43185;DHT22;28803;52.308;19.096;2023-02-01T23:01:32;1.50;99.90
43185;DHT22;28803;52.308;19.096;2023-02-01T23:04:02;1.50;99.90
43185;DHT22;28803;52.308;19.096;2023-02-01T23:06:30;1.60;99.90
43185;DHT22;28803;52.308;19.096;2023-02-01T23:08:59;1.60;99.90
43185;DHT22;28803;52.308;19.096;2023-02-01T23:11:27;1.70;99.90
43185;DHT22;28803;52.308;19.096;2023-02-01T23:13:55;1.80;99.90
43185;DHT22;28803;52.308;19.096;2023-02-01T23:16:22;1.80;99.90
43185;DHT22;28803;52.308;19.096;2023-02-01T23:18:50;1.80;99.90
43185;DHT22;28803;52.308;19.096;2023-02-01T23:21:19;1.90;99.90
43185;DHT22;28803;52.308;19.096;2023-02-01T23:23:49;1.90;99.90
43185;DHT22;28803;52.308;19.096;2023-02-01T23:26:16;1.90;99.90
43185;DHT22;28803;52.308;19.096;2023-02-01T23:28:44;2.00;99.90
43185;DHT22;28803;52.308;19.096;2023-02-01T23:31:13;2.00;99.90
43185;DHT22;28803;52.308;19.096;2023-02-01T23:33:43;2.00;99.90
43185;DHT22;28803;52.308;19.096;2023-02-01T23:36:12;2.00;99.90
43185;DHT22;28803;52.308;19.096;2023-02-01T23:38:44;1.90;99.90
43185;DHT22;28803;52.308;19.096;2023-02-01T23:41:13;1.90;99.90
43185;DHT22;28803;52.308;19.096;2023-02-01T23:43:41;1.90;99.90
43185;DHT22;28803;52.308;19.096;2023-02-01T23:46:29;2.00;99.90
43185;DHT22;28803;52.308;19.096;2023-02-01T23:48:57;2.00;99.90
43185;DHT22;28803;52.308;19.096;2023-02-01T23:51:25;2.00;99.90
43185;DHT22;28803;52.308;19.096;2023-02-01T23:53:53;2.00;99.90
43185;DHT22;28803;52.308;19.096;2023-02-01T23:56:29;2.00;99.90
43185;DHT22;28803;52.308;19.096;2023-02-01T23:59:02;1.80;99.90
